sensor_id;sensor_type;location;lat;lon;timestamp;temperature;humidity
44111;DHT22;29774;52.664;5.074;2022-10-16T00:01:26;16.80;74.50
44111;DHT22;29774;52.664;5.074;2022-10-16T00:03:52;16.30;75.40
44111;DHT22;29774;52.664;5.074;2022-10-16T00:06:20;16.40;76.10
44111;DHT22;29774;52.664;5.074;2022-10-16T00:08:46;16.70;75.10
44111;DHT22;29774;52.664;5.074;2022-10-16T00:11:17;16.00;74.80
44111;DHT22;29774;52.664;5.074;2022-10-16T00:13:44;15.90;77.30
44111;DHT22;29774;52.664;5.074;2022-10-16T00:16:11;16.10;76.80
44111;DHT22;29774;52.664;5.074;2022-10-16T00:18:37;16.50;75.30
44111;DHT22;29774;52.664;5.074;2022-10-16T00:21:06;16.40;75.70
44111;DHT22;29774;52.664;5.074;2022-10-16T00:23:32;16.60;75.50
44111;DHT22;29774;52.664;5.074;2022-10-16T00:26:00;16.50;75.50
44111;DHT22;29774;52.664;5.074;2022-10-16T00:28:26;16.70;74.60
44111;DHT22;29774;52.664;5.074;2022-10-16T00:30:51;16.50;75.30
44111;DHT22;29774;52.664;5.074;2022-10-16T00:33:17;16.70;74.90
44111;DHT22;29774;52.664;5.074;2022-10-16T00:35:43;16.60;75.10
44111;DHT22;29774;52.664;5.074;2022-10-16T00:38:09;16.70;74.20
44111;DHT22;29774;52.664;5.074;2022-10-16T00:40:35;16.70;74.80
44111;DHT22;29774;52.664;5.074;2022-10-16T00:43:00;16.70;73.60
44111;DHT22;29774;52.664;5.074;2022-10-16T00:45:26;16.70;74.70
44111;DHT22;29774;52.664;5.074;2022-10-16T00:47:54;16.80;74.40
44111;DHT22;29774;52.664;5.074;2022-10-16T00:50:32;16.30;75.10
44111;DHT22;29774;52.664;5.074;2022-10-16T00:52:58;16.60;74.80
44111;DHT22;29774;52.664;5.074;2022-10-16T00:55:26;16.90;74.40
44111;DHT22;29774;52.664;5.074;2022-10-16T00:57:52;16.70;74.10
44111;DHT22;29774;52.664;5.074;2022-10-16T01:00:21;16.70;74.70
44111;DHT22;29774;52.664;5.074;2022-10-16T01:02:55;17.00;73.80
44111;DHT22;29774;52.664;5.074;2022-10-16T01:05:23;16.90;73.80
44111;DHT22;29774;52.664;5.074;2022-10-16T01:07:56;16.60;73.50
44111;DHT22;29774;52.664;5.074;2022-10-16T01:10:31;16.40;75.20
44111;DHT22;29774;52.664;5.074;2022-10-16T01:15:59;16.70;73.80
44111;DHT22;29774;52.664;5.074;2022-10-16T01:21:28;16.80;74.00
44111;DHT22;29774;52.664;5.074;2022-10-16T01:29:34;16.60;74.60
44111;DHT22;29774;52.664;5.074;2022-10-16T01:32:18;16.70;74.30
44111;DHT22;29774;52.664;5.074;2022-10-16T01:34:51;16.60;73.40
44111;DHT22;29774;52.664;5.074;2022-10-16T01:37:39;16.80;73.60
44111;DHT22;29774;52.664;5.074;2022-10-16T01:40:10;16.70;73.90
44111;DHT22;29774;52.664;5.074;2022-10-16T01:42:41;16.90;73.80
44111;DHT22;29774;52.664;5.074;2022-10-16T01:45:10;16.90;73.50
44111;DHT22;29774;52.664;5.074;2022-10-16T01:47:39;16.90;73.40
44111;DHT22;29774;52.664;5.074;2022-10-16T01:50:06;16.70;73.40
44111;DHT22;29774;52.664;5.074;2022-10-16T01:52:35;16.50;72.60
44111;DHT22;29774;52.664;5.074;2022-10-16T01:55:04;16.80;73.70
44111;DHT22;29774;52.664;5.074;2022-10-16T01:57:32;16.60;73.00
44111;DHT22;29774;52.664;5.074;2022-10-16T02:00:03;16.90;73.80
44111;DHT22;29774;52.664;5.074;2022-10-16T02:02:30;17.00;73.30
44111;DHT22;29774;52.664;5.074;2022-10-16T02:05:02;17.10;73.10
44111;DHT22;29774;52.664;5.074;2022-10-16T02:07:29;17.00;73.30
44111;DHT22;29774;52.664;5.074;2022-10-16T02:09:54;16.80;73.80
44111;DHT22;29774;52.664;5.074;2022-10-16T02:12:28;17.00;73.20
44111;DHT22;29774;52.664;5.074;2022-10-16T02:14:56;16.70;73.40
44111;DHT22;29774;52.664;5.074;2022-10-16T02:17:21;17.00;73.10
44111;DHT22;29774;52.664;5.074;2022-10-16T02:19:48;17.00;72.90
44111;DHT22;29774;52.664;5.074;2022-10-16T02:22:21;17.10;72.90
44111;DHT22;29774;52.664;5.074;2022-10-16T02:24:52;16.90;73.30
44111;DHT22;29774;52.664;5.074;2022-10-16T02:27:26;16.70;71.60
44111;DHT22;29774;52.664;5.074;2022-10-16T02:30:00;16.70;73.80
44111;DHT22;29774;52.664;5.074;2022-10-16T02:32:30;16.90;73.40
44111;DHT22;29774;52.664;5.074;2022-10-16T02:34:58;16.80;73.80
44111;DHT22;29774;52.664;5.074;2022-10-16T02:37:26;16.80;73.10
44111;DHT22;29774;52.664;5.074;2022-10-16T02:39:53;16.70;74.00
44111;DHT22;29774;52.664;5.074;2022-10-16T02:42:19;16.30;74.30
44111;DHT22;29774;52.664;5.074;2022-10-16T02:44:44;16.20;75.30
44111;DHT22;29774;52.664;5.074;2022-10-16T02:47:10;16.30;75.30
44111;DHT22;29774;52.664;5.074;2022-10-16T02:49:36;15.90;75.50
44111;DHT22;29774;52.664;5.074;2022-10-16T02:52:01;15.90;76.20
44111;DHT22;29774;52.664;5.074;2022-10-16T02:54:27;16.40;75.10
44111;DHT22;29774;52.664;5.074;2022-10-16T02:56:52;16.70;74.10
44111;DHT22;29774;52.664;5.074;2022-10-16T02:59:18;16.70;73.80
44111;DHT22;29774;52.664;5.074;2022-10-16T03:01:44;16.70;74.00
44111;DHT22;29774;52.664;5.074;2022-10-16T03:04:09;16.60;73.70
44111;DHT22;29774;52.664;5.074;2022-10-16T03:06:35;16.70;73.80
44111;DHT22;29774;52.664;5.074;2022-10-16T03:09:01;16.70;73.90
44111;DHT22;29774;52.664;5.074;2022-10-16T03:11:26;17.00;73.20
44111;DHT22;29774;52.664;5.074;2022-10-16T03:13:53;17.00;72.70
44111;DHT22;29774;52.664;5.074;2022-10-16T03:16:18;16.90;73.20
44111;DHT22;29774;52.664;5.074;2022-10-16T03:18:48;17.00;73.00
44111;DHT22;29774;52.664;5.074;2022-10-16T03:21:13;17.00;72.90
44111;DHT22;29774;52.664;5.074;2022-10-16T03:23:39;16.50;74.40
44111;DHT22;29774;52.664;5.074;2022-10-16T03:26:05;16.50;74.60
44111;DHT22;29774;52.664;5.074;2022-10-16T03:28:30;16.80;73.50
44111;DHT22;29774;52.664;5.074;2022-10-16T03:30:56;16.60;73.30
44111;DHT22;29774;52.664;5.074;2022-10-16T03:33:21;16.70;73.70
44111;DHT22;29774;52.664;5.074;2022-10-16T03:35:53;16.80;73.20
44111;DHT22;29774;52.664;5.074;2022-10-16T03:38:20;16.90;73.30
44111;DHT22;29774;52.664;5.074;2022-10-16T03:40:45;16.60;74.20
44111;DHT22;29774;52.664;5.074;2022-10-16T03:43:11;16.70;73.90
44111;DHT22;29774;52.664;5.074;2022-10-16T03:45:37;16.70;73.60
44111;DHT22;29774;52.664;5.074;2022-10-16T03:48:02;16.60;74.30
44111;DHT22;29774;52.664;5.074;2022-10-16T03:50:29;15.60;77.80
44111;DHT22;29774;52.664;5.074;2022-10-16T03:52:54;15.10;80.30
44111;DHT22;29774;52.664;5.074;2022-10-16T03:55:20;15.90;77.50
44111;DHT22;29774;52.664;5.074;2022-10-16T03:57:45;15.70;78.30
44111;DHT22;29774;52.664;5.074;2022-10-16T04:00:12;16.00;76.20
44111;DHT22;29774;52.664;5.074;2022-10-16T04:02:37;16.10;76.20
44111;DHT22;29774;52.664;5.074;2022-10-16T04:05:04;16.50;74.90
44111;DHT22;29774;52.664;5.074;2022-10-16T04:07:29;16.70;74.00
44111;DHT22;29774;52.664;5.074;2022-10-16T04:09:55;16.50;74.60
44111;DHT22;29774;52.664;5.074;2022-10-16T04:12:21;16.30;75.00
44111;DHT22;29774;52.664;5.074;2022-10-16T04:14:46;16.60;74.30
44111;DHT22;29774;52.664;5.074;2022-10-16T04:17:12;16.50;74.80
44111;DHT22;29774;52.664;5.074;2022-10-16T04:19:37;16.70;74.30
44111;DHT22;29774;52.664;5.074;2022-10-16T04:22:03;16.70;74.40
44111;DHT22;29774;52.664;5.074;2022-10-16T04:24:28;16.40;74.90
44111;DHT22;29774;52.664;5.074;2022-10-16T04:26:54;16.80;74.00
44111;DHT22;29774;52.664;5.074;2022-10-16T04:29:19;16.60;74.90
44111;DHT22;29774;52.664;5.074;2022-10-16T04:31:45;16.80;73.70
44111;DHT22;29774;52.664;5.074;2022-10-16T04:34:10;16.80;73.90
44111;DHT22;29774;52.664;5.074;2022-10-16T04:36:36;16.70;74.00
44111;DHT22;29774;52.664;5.074;2022-10-16T04:39:01;16.90;73.40
44111;DHT22;29774;52.664;5.074;2022-10-16T04:41:27;16.70;73.50
44111;DHT22;29774;52.664;5.074;2022-10-16T04:43:52;16.70;73.50
44111;DHT22;29774;52.664;5.074;2022-10-16T04:46:18;16.90;73.60
44111;DHT22;29774;52.664;5.074;2022-10-16T04:48:44;16.80;73.70
44111;DHT22;29774;52.664;5.074;2022-10-16T04:51:09;16.80;73.70
44111;DHT22;29774;52.664;5.074;2022-10-16T04:53:35;16.70;73.60
44111;DHT22;29774;52.664;5.074;2022-10-16T04:56:00;16.60;74.20
44111;DHT22;29774;52.664;5.074;2022-10-16T04:58:26;16.60;74.40
44111;DHT22;29774;52.664;5.074;2022-10-16T05:00:51;16.70;74.10
44111;DHT22;29774;52.664;5.074;2022-10-16T05:03:17;16.50;74.50
44111;DHT22;29774;52.664;5.074;2022-10-16T05:05:44;16.70;74.30
44111;DHT22;29774;52.664;5.074;2022-10-16T05:08:10;16.70;74.20
44111;DHT22;29774;52.664;5.074;2022-10-16T05:10:36;16.30;74.40
44111;DHT22;29774;52.664;5.074;2022-10-16T05:13:01;16.10;76.30
44111;DHT22;29774;52.664;5.074;2022-10-16T05:15:27;16.30;75.60
44111;DHT22;29774;52.664;5.074;2022-10-16T05:17:54;16.40;75.10
44111;DHT22;29774;52.664;5.074;2022-10-16T05:20:21;16.20;75.60
44111;DHT22;29774;52.664;5.074;2022-10-16T05:22:46;16.50;74.80
44111;DHT22;29774;52.664;5.074;2022-10-16T05:25:12;16.70;74.00
44111;DHT22;29774;52.664;5.074;2022-10-16T05:27:38;16.50;74.50
44111;DHT22;29774;52.664;5.074;2022-10-16T05:30:03;16.60;74.30
44111;DHT22;29774;52.664;5.074;2022-10-16T05:32:29;16.50;74.80
44111;DHT22;29774;52.664;5.074;2022-10-16T05:34:55;16.60;74.60
44111;DHT22;29774;52.664;5.074;2022-10-16T05:37:20;16.50;74.70
44111;DHT22;29774;52.664;5.074;2022-10-16T05:39:46;16.60;74.40
44111;DHT22;29774;52.664;5.074;2022-10-16T05:42:11;16.30;75.00
44111;DHT22;29774;52.664;5.074;2022-10-16T05:44:37;16.20;75.60
44111;DHT22;29774;52.664;5.074;2022-10-16T05:47:02;16.10;76.20
44111;DHT22;29774;52.664;5.074;2022-10-16T05:49:28;16.00;76.40
44111;DHT22;29774;52.664;5.074;2022-10-16T05:51:54;16.00;76.50
44111;DHT22;29774;52.664;5.074;2022-10-16T05:54:19;15.70;77.10
44111;DHT22;29774;52.664;5.074;2022-10-16T05:56:45;15.70;77.50
44111;DHT22;29774;52.664;5.074;2022-10-16T05:59:10;16.10;76.20
44111;DHT22;29774;52.664;5.074;2022-10-16T06:01:36;16.20;75.70
44111;DHT22;29774;52.664;5.074;2022-10-16T06:04:01;16.10;75.60
44111;DHT22;29774;52.664;5.074;2022-10-16T06:06:28;15.90;76.30
44111;DHT22;29774;52.664;5.074;2022-10-16T06:08:56;16.00;76.30
44111;DHT22;29774;52.664;5.074;2022-10-16T06:11:24;16.10;76.20
44111;DHT22;29774;52.664;5.074;2022-10-16T06:13:52;15.90;76.60
44111;DHT22;29774;52.664;5.074;2022-10-16T06:16:18;16.10;76.00
44111;DHT22;29774;52.664;5.074;2022-10-16T06:18:44;16.10;76.20
44111;DHT22;29774;52.664;5.074;2022-10-16T06:21:28;16.20;75.60
44111;DHT22;29774;52.664;5.074;2022-10-16T06:23:56;16.20;75.60
44111;DHT22;29774;52.664;5.074;2022-10-16T06:26:27;16.30;75.90
44111;DHT22;29774;52.664;5.074;2022-10-16T06:28:57;16.40;75.00
44111;DHT22;29774;52.664;5.074;2022-10-16T06:31:23;16.50;75.30
44111;DHT22;29774;52.664;5.074;2022-10-16T06:33:53;16.60;75.30
44111;DHT22;29774;52.664;5.074;2022-10-16T06:36:19;16.60;74.80
44111;DHT22;29774;52.664;5.074;2022-10-16T06:38:45;16.60;75.30
44111;DHT22;29774;52.664;5.074;2022-10-16T06:41:19;16.60;75.00
44111;DHT22;29774;52.664;5.074;2022-10-16T06:43:46;16.60;74.80
44111;DHT22;29774;52.664;5.074;2022-10-16T06:46:15;16.60;74.90
44111;DHT22;29774;52.664;5.074;2022-10-16T06:48:40;16.60;75.10
44111;DHT22;29774;52.664;5.074;2022-10-16T06:51:11;16.60;75.40
44111;DHT22;29774;52.664;5.074;2022-10-16T06:53:39;16.60;75.00
44111;DHT22;29774;52.664;5.074;2022-10-16T06:58:37;16.50;75.30
44111;DHT22;29774;52.664;5.074;2022-10-16T07:01:03;16.40;75.90
44111;DHT22;29774;52.664;5.074;2022-10-16T07:03:29;16.50;75.50
44111;DHT22;29774;52.664;5.074;2022-10-16T07:05:55;16.50;75.70
44111;DHT22;29774;52.664;5.074;2022-10-16T07:08:20;16.50;75.70
44111;DHT22;29774;52.664;5.074;2022-10-16T07:10:46;16.30;75.90
44111;DHT22;29774;52.664;5.074;2022-10-16T07:13:11;16.50;75.70
44111;DHT22;29774;52.664;5.074;2022-10-16T07:15:39;16.40;75.40
44111;DHT22;29774;52.664;5.074;2022-10-16T07:18:05;16.50;75.90
44111;DHT22;29774;52.664;5.074;2022-10-16T07:20:30;16.50;75.80
44111;DHT22;29774;52.664;5.074;2022-10-16T07:22:56;16.60;75.40
44111;DHT22;29774;52.664;5.074;2022-10-16T07:25:21;16.70;74.90
44111;DHT22;29774;52.664;5.074;2022-10-16T07:27:47;16.70;74.90
44111;DHT22;29774;52.664;5.074;2022-10-16T07:30:12;16.70;75.00
44111;DHT22;29774;52.664;5.074;2022-10-16T07:32:38;16.80;74.30
44111;DHT22;29774;52.664;5.074;2022-10-16T07:35:04;16.70;74.50
44111;DHT22;29774;52.664;5.074;2022-10-16T07:37:30;16.80;74.70
44111;DHT22;29774;52.664;5.074;2022-10-16T07:39:55;16.80;74.60
44111;DHT22;29774;52.664;5.074;2022-10-16T07:42:21;16.90;74.20
44111;DHT22;29774;52.664;5.074;2022-10-16T07:44:46;17.00;73.70
44111;DHT22;29774;52.664;5.074;2022-10-16T07:47:12;17.00;73.60
44111;DHT22;29774;52.664;5.074;2022-10-16T07:49:37;17.00;73.70
44111;DHT22;29774;52.664;5.074;2022-10-16T07:52:03;17.10;73.60
44111;DHT22;29774;52.664;5.074;2022-10-16T07:54:29;17.20;73.70
44111;DHT22;29774;52.664;5.074;2022-10-16T07:56:54;17.20;73.30
44111;DHT22;29774;52.664;5.074;2022-10-16T07:59:20;17.20;73.30
44111;DHT22;29774;52.664;5.074;2022-10-16T08:01:46;17.10;73.50
44111;DHT22;29774;52.664;5.074;2022-10-16T08:04:11;17.10;73.70
44111;DHT22;29774;52.664;5.074;2022-10-16T08:06:38;17.20;73.50
44111;DHT22;29774;52.664;5.074;2022-10-16T08:09:05;17.10;73.90
44111;DHT22;29774;52.664;5.074;2022-10-16T08:11:31;17.10;74.10
44111;DHT22;29774;52.664;5.074;2022-10-16T08:13:57;17.10;74.90
44111;DHT22;29774;52.664;5.074;2022-10-16T08:16:22;17.20;73.50
44111;DHT22;29774;52.664;5.074;2022-10-16T08:18:48;17.10;73.90
44111;DHT22;29774;52.664;5.074;2022-10-16T08:21:18;17.20;73.50
44111;DHT22;29774;52.664;5.074;2022-10-16T08:23:44;17.20;73.70
44111;DHT22;29774;52.664;5.074;2022-10-16T08:26:10;17.20;74.20
44111;DHT22;29774;52.664;5.074;2022-10-16T08:28:36;17.20;73.40
44111;DHT22;29774;52.664;5.074;2022-10-16T08:33:32;17.20;74.00
44111;DHT22;29774;52.664;5.074;2022-10-16T08:35:57;17.20;73.70
44111;DHT22;29774;52.664;5.074;2022-10-16T08:38:23;17.30;73.30
44111;DHT22;29774;52.664;5.074;2022-10-16T08:40:49;17.30;73.90
44111;DHT22;29774;52.664;5.074;2022-10-16T08:48:37;17.50;74.70
44111;DHT22;29774;52.664;5.074;2022-10-16T08:51:07;17.50;74.40
44111;DHT22;29774;52.664;5.074;2022-10-16T08:53:46;17.50;76.90
44111;DHT22;29774;52.664;5.074;2022-10-16T08:56:14;17.60;72.50
44111;DHT22;29774;52.664;5.074;2022-10-16T08:58:39;17.70;72.30
44111;DHT22;29774;52.664;5.074;2022-10-16T09:01:13;17.80;75.30
44111;DHT22;29774;52.664;5.074;2022-10-16T09:06:57;18.30;73.80
44111;DHT22;29774;52.664;5.074;2022-10-16T09:09:53;18.10;72.50
44111;DHT22;29774;52.664;5.074;2022-10-16T09:23:27;18.20;73.40
44111;DHT22;29774;52.664;5.074;2022-10-16T09:25:55;18.50;77.10
44111;DHT22;29774;52.664;5.074;2022-10-16T09:28:21;18.50;75.50
44111;DHT22;29774;52.664;5.074;2022-10-16T09:30:47;18.60;74.90
44111;DHT22;29774;52.664;5.074;2022-10-16T09:33:18;18.80;75.60
44111;DHT22;29774;52.664;5.074;2022-10-16T09:35:54;18.90;76.50
44111;DHT22;29774;52.664;5.074;2022-10-16T09:38:41;19.00;77.20
44111;DHT22;29774;52.664;5.074;2022-10-16T09:41:19;19.10;76.30
44111;DHT22;29774;52.664;5.074;2022-10-16T09:43:56;19.00;75.90
44111;DHT22;29774;52.664;5.074;2022-10-16T09:48:59;18.80;75.40
44111;DHT22;29774;52.664;5.074;2022-10-16T09:51:29;19.00;75.50
44111;DHT22;29774;52.664;5.074;2022-10-16T09:54:01;19.10;74.70
44111;DHT22;29774;52.664;5.074;2022-10-16T09:56:33;18.70;75.70
44111;DHT22;29774;52.664;5.074;2022-10-16T09:59:03;18.80;78.70
44111;DHT22;29774;52.664;5.074;2022-10-16T10:01:39;18.90;73.10
44111;DHT22;29774;52.664;5.074;2022-10-16T10:04:08;19.00;73.60
44111;DHT22;29774;52.664;5.074;2022-10-16T10:06:46;19.20;75.90
44111;DHT22;29774;52.664;5.074;2022-10-16T10:09:17;19.20;76.10
44111;DHT22;29774;52.664;5.074;2022-10-16T10:11:59;19.20;75.40
44111;DHT22;29774;52.664;5.074;2022-10-16T10:14:47;19.50;77.80
44111;DHT22;29774;52.664;5.074;2022-10-16T10:17:21;19.40;77.70
44111;DHT22;29774;52.664;5.074;2022-10-16T10:22:45;19.30;77.60
44111;DHT22;29774;52.664;5.074;2022-10-16T10:33:55;19.00;77.50
44111;DHT22;29774;52.664;5.074;2022-10-16T10:39:04;19.40;65.30
44111;DHT22;29774;52.664;5.074;2022-10-16T10:44:48;19.40;76.10
44111;DHT22;29774;52.664;5.074;2022-10-16T10:50:39;19.40;71.10
44111;DHT22;29774;52.664;5.074;2022-10-16T11:06:57;19.40;76.80
44111;DHT22;29774;52.664;5.074;2022-10-16T11:09:36;19.50;76.40
44111;DHT22;29774;52.664;5.074;2022-10-16T11:12:17;19.60;75.50
44111;DHT22;29774;52.664;5.074;2022-10-16T11:18:30;19.30;73.50
44111;DHT22;29774;52.664;5.074;2022-10-16T11:21:02;19.20;72.90
44111;DHT22;29774;52.664;5.074;2022-10-16T11:23:46;19.20;70.60
44111;DHT22;29774;52.664;5.074;2022-10-16T11:26:20;19.20;72.50
44111;DHT22;29774;52.664;5.074;2022-10-16T11:28:51;19.10;72.40
44111;DHT22;29774;52.664;5.074;2022-10-16T11:31:36;19.20;71.80
44111;DHT22;29774;52.664;5.074;2022-10-16T11:34:16;19.10;71.60
44111;DHT22;29774;52.664;5.074;2022-10-16T11:39:28;19.00;71.90
44111;DHT22;29774;52.664;5.074;2022-10-16T11:42:11;19.00;72.00
44111;DHT22;29774;52.664;5.074;2022-10-16T11:47:43;18.90;71.30
44111;DHT22;29774;52.664;5.074;2022-10-16T11:55:43;19.20;67.30
44111;DHT22;29774;52.664;5.074;2022-10-16T11:58:30;19.10;69.40
44111;DHT22;29774;52.664;5.074;2022-10-16T12:01:17;19.10;71.10
44111;DHT22;29774;52.664;5.074;2022-10-16T12:06:42;19.10;70.60
44111;DHT22;29774;52.664;5.074;2022-10-16T12:09:36;19.00;64.60
44111;DHT22;29774;52.664;5.074;2022-10-16T12:12:00;18.80;68.70
44111;DHT22;29774;52.664;5.074;2022-10-16T12:17:04;18.80;71.60
44111;DHT22;29774;52.664;5.074;2022-10-16T12:20:18;18.70;71.10
44111;DHT22;29774;52.664;5.074;2022-10-16T12:22:55;18.70;71.80
44111;DHT22;29774;52.664;5.074;2022-10-16T12:25:25;18.70;71.10
44111;DHT22;29774;52.664;5.074;2022-10-16T12:27:56;18.60;69.90
44111;DHT22;29774;52.664;5.074;2022-10-16T12:30:23;18.60;70.50
44111;DHT22;29774;52.664;5.074;2022-10-16T12:32:55;18.50;70.20
44111;DHT22;29774;52.664;5.074;2022-10-16T12:35:26;18.50;71.70
44111;DHT22;29774;52.664;5.074;2022-10-16T12:37:53;18.50;68.90
44111;DHT22;29774;52.664;5.074;2022-10-16T12:40:26;18.60;71.10
44111;DHT22;29774;52.664;5.074;2022-10-16T12:42:52;18.60;71.70
44111;DHT22;29774;52.664;5.074;2022-10-16T12:45:26;18.70;70.30
44111;DHT22;29774;52.664;5.074;2022-10-16T12:47:54;18.70;71.20
44111;DHT22;29774;52.664;5.074;2022-10-16T12:50:38;18.70;69.40
44111;DHT22;29774;52.664;5.074;2022-10-16T12:53:24;18.80;71.20
44111;DHT22;29774;52.664;5.074;2022-10-16T12:56:03;18.80;70.90
44111;DHT22;29774;52.664;5.074;2022-10-16T13:04:04;18.70;70.80
44111;DHT22;29774;52.664;5.074;2022-10-16T13:17:30;18.70;66.40
44111;DHT22;29774;52.664;5.074;2022-10-16T13:23:08;18.70;66.40
44111;DHT22;29774;52.664;5.074;2022-10-16T13:28:28;18.70;69.10
44111;DHT22;29774;52.664;5.074;2022-10-16T13:30:57;18.20;63.30
44111;DHT22;29774;52.664;5.074;2022-10-16T13:33:42;18.50;69.80
44111;DHT22;29774;52.664;5.074;2022-10-16T13:36:23;18.70;70.20
44111;DHT22;29774;52.664;5.074;2022-10-16T13:39:15;18.90;66.50
44111;DHT22;29774;52.664;5.074;2022-10-16T13:41:43;18.70;63.90
44111;DHT22;29774;52.664;5.074;2022-10-16T13:44:20;18.70;69.90
44111;DHT22;29774;52.664;5.074;2022-10-16T13:46:46;18.70;69.80
44111;DHT22;29774;52.664;5.074;2022-10-16T13:49:16;18.50;69.00
44111;DHT22;29774;52.664;5.074;2022-10-16T13:51:57;18.90;70.30
44111;DHT22;29774;52.664;5.074;2022-10-16T13:54:24;18.90;68.70
44111;DHT22;29774;52.664;5.074;2022-10-16T13:56:50;19.00;65.80
44111;DHT22;29774;52.664;5.074;2022-10-16T13:59:36;19.20;69.80
44111;DHT22;29774;52.664;5.074;2022-10-16T14:04:48;19.00;70.00
44111;DHT22;29774;52.664;5.074;2022-10-16T14:07:17;19.00;63.70
44111;DHT22;29774;52.664;5.074;2022-10-16T14:09:48;18.90;69.90
44111;DHT22;29774;52.664;5.074;2022-10-16T14:12:15;18.80;70.00
44111;DHT22;29774;52.664;5.074;2022-10-16T14:17:19;18.50;71.70
44111;DHT22;29774;52.664;5.074;2022-10-16T14:19:46;18.70;70.70
44111;DHT22;29774;52.664;5.074;2022-10-16T14:22:36;18.30;70.00
44111;DHT22;29774;52.664;5.074;2022-10-16T14:30:35;17.80;64.60
44111;DHT22;29774;52.664;5.074;2022-10-16T14:33:19;18.00;70.70
44111;DHT22;29774;52.664;5.074;2022-10-16T14:35:45;18.00;71.10
44111;DHT22;29774;52.664;5.074;2022-10-16T14:38:19;17.70;71.30
44111;DHT22;29774;52.664;5.074;2022-10-16T14:40:47;17.40;64.70
44111;DHT22;29774;52.664;5.074;2022-10-16T14:43:29;17.20;67.40
44111;DHT22;29774;52.664;5.074;2022-10-16T14:45:56;16.70;67.40
44111;DHT22;29774;52.664;5.074;2022-10-16T14:48:23;16.80;66.90
44111;DHT22;29774;52.664;5.074;2022-10-16T14:50:49;16.70;66.50
44111;DHT22;29774;52.664;5.074;2022-10-16T14:53:15;16.60;67.40
44111;DHT22;29774;52.664;5.074;2022-10-16T14:55:41;16.70;72.10
44111;DHT22;29774;52.664;5.074;2022-10-16T14:58:21;17.00;72.00
44111;DHT22;29774;52.664;5.074;2022-10-16T15:00:47;17.50;71.00
44111;DHT22;29774;52.664;5.074;2022-10-16T15:03:13;17.10;65.40
44111;DHT22;29774;52.664;5.074;2022-10-16T15:05:38;17.10;68.00
44111;DHT22;29774;52.664;5.074;2022-10-16T15:08:04;16.80;70.20
44111;DHT22;29774;52.664;5.074;2022-10-16T15:10:31;17.10;65.00
44111;DHT22;29774;52.664;5.074;2022-10-16T15:12:58;16.70;65.60
44111;DHT22;29774;52.664;5.074;2022-10-16T15:17:56;16.30;67.20
44111;DHT22;29774;52.664;5.074;2022-10-16T15:20:32;16.40;72.60
44111;DHT22;29774;52.664;5.074;2022-10-16T15:23:10;16.60;72.10
44111;DHT22;29774;52.664;5.074;2022-10-16T15:25:45;16.40;65.60
44111;DHT22;29774;52.664;5.074;2022-10-16T15:28:12;16.10;67.90
44111;DHT22;29774;52.664;5.074;2022-10-16T15:30:38;16.00;68.30
44111;DHT22;29774;52.664;5.074;2022-10-16T15:33:05;15.90;68.10
44111;DHT22;29774;52.664;5.074;2022-10-16T15:35:34;15.80;68.80
44111;DHT22;29774;52.664;5.074;2022-10-16T15:38:03;15.70;69.40
44111;DHT22;29774;52.664;5.074;2022-10-16T15:40:28;15.60;69.60
44111;DHT22;29774;52.664;5.074;2022-10-16T15:42:54;15.50;71.10
44111;DHT22;29774;52.664;5.074;2022-10-16T15:45:20;15.40;71.40
44111;DHT22;29774;52.664;5.074;2022-10-16T15:47:47;15.30;72.20
44111;DHT22;29774;52.664;5.074;2022-10-16T15:50:14;15.20;72.00
44111;DHT22;29774;52.664;5.074;2022-10-16T15:52:40;15.10;72.80
44111;DHT22;29774;52.664;5.074;2022-10-16T15:55:08;15.10;74.50
44111;DHT22;29774;52.664;5.074;2022-10-16T15:57:34;15.10;75.90
44111;DHT22;29774;52.664;5.074;2022-10-16T16:00:11;14.90;75.10
44111;DHT22;29774;52.664;5.074;2022-10-16T16:02:37;14.70;76.60
44111;DHT22;29774;52.664;5.074;2022-10-16T16:05:03;14.60;77.20
44111;DHT22;29774;52.664;5.074;2022-10-16T16:07:32;14.50;77.50
44111;DHT22;29774;52.664;5.074;2022-10-16T16:09:59;14.40;78.30
44111;DHT22;29774;52.664;5.074;2022-10-16T16:12:24;14.30;78.40
44111;DHT22;29774;52.664;5.074;2022-10-16T16:14:50;14.20;78.50
44111;DHT22;29774;52.664;5.074;2022-10-16T16:17:16;14.30;77.80
44111;DHT22;29774;52.664;5.074;2022-10-16T16:19:42;14.30;77.00
44111;DHT22;29774;52.664;5.074;2022-10-16T16:22:08;14.20;77.60
44111;DHT22;29774;52.664;5.074;2022-10-16T16:24:33;14.10;77.70
44111;DHT22;29774;52.664;5.074;2022-10-16T16:26:59;14.10;77.60
44111;DHT22;29774;52.664;5.074;2022-10-16T16:29:24;14.00;79.40
44111;DHT22;29774;52.664;5.074;2022-10-16T16:31:50;13.90;79.30
44111;DHT22;29774;52.664;5.074;2022-10-16T16:34:25;13.70;80.20
44111;DHT22;29774;52.664;5.074;2022-10-16T16:36:51;13.60;81.30
44111;DHT22;29774;52.664;5.074;2022-10-16T16:39:19;13.40;82.60
44111;DHT22;29774;52.664;5.074;2022-10-16T16:41:45;13.40;82.40
44111;DHT22;29774;52.664;5.074;2022-10-16T16:44:11;13.40;82.20
44111;DHT22;29774;52.664;5.074;2022-10-16T16:46:37;13.20;83.60
44111;DHT22;29774;52.664;5.074;2022-10-16T16:49:05;13.10;84.00
44111;DHT22;29774;52.664;5.074;2022-10-16T16:51:31;13.00;84.50
44111;DHT22;29774;52.664;5.074;2022-10-16T16:53:57;12.90;85.30
44111;DHT22;29774;52.664;5.074;2022-10-16T16:56:24;12.90;85.50
44111;DHT22;29774;52.664;5.074;2022-10-16T16:58:51;12.90;85.60
44111;DHT22;29774;52.664;5.074;2022-10-16T17:01:18;13.00;85.00
44111;DHT22;29774;52.664;5.074;2022-10-16T17:03:44;13.30;83.80
44111;DHT22;29774;52.664;5.074;2022-10-16T17:06:11;13.10;84.30
44111;DHT22;29774;52.664;5.074;2022-10-16T17:08:38;13.10;84.70
44111;DHT22;29774;52.664;5.074;2022-10-16T17:11:04;12.90;85.30
44111;DHT22;29774;52.664;5.074;2022-10-16T17:13:32;12.90;85.40
44111;DHT22;29774;52.664;5.074;2022-10-16T17:16:00;12.80;85.20
44111;DHT22;29774;52.664;5.074;2022-10-16T17:18:26;12.80;85.50
44111;DHT22;29774;52.664;5.074;2022-10-16T17:20:52;12.70;86.60
44111;DHT22;29774;52.664;5.074;2022-10-16T17:23:18;12.70;86.60
44111;DHT22;29774;52.664;5.074;2022-10-16T17:25:45;12.60;87.00
44111;DHT22;29774;52.664;5.074;2022-10-16T17:28:12;12.50;86.40
44111;DHT22;29774;52.664;5.074;2022-10-16T17:30:42;12.50;86.60
44111;DHT22;29774;52.664;5.074;2022-10-16T17:33:08;12.60;86.50
44111;DHT22;29774;52.664;5.074;2022-10-16T17:35:42;12.70;86.30
44111;DHT22;29774;52.664;5.074;2022-10-16T17:38:09;12.70;85.90
44111;DHT22;29774;52.664;5.074;2022-10-16T17:40:35;12.70;86.20
44111;DHT22;29774;52.664;5.074;2022-10-16T17:43:01;12.60;86.40
44111;DHT22;29774;52.664;5.074;2022-10-16T17:45:27;12.60;86.20
44111;DHT22;29774;52.664;5.074;2022-10-16T17:47:53;12.60;86.40
44111;DHT22;29774;52.664;5.074;2022-10-16T17:50:19;12.50;86.80